Time;durP1;ratioP1;P1;durP2;ratioP2;P2;SDS_P1;SDS_P2;PMS_P1;PMS_P2;Temp;Humidity;BMP_temperature;BMP_pressure;BME280_temperature;BME280_humidity;BME280_pressure;Samples;Min_cycle;Max_cycle;Signal;HPM_P1;HPM_P2
2021/12/05 00:18:28;;;;;;;;;;;;;;;;;;5035754;28;19951;-89
2021/12/05 00:21:16;;;;;;;;;;;;;;;;;;5045159;28;19905;-88
2021/12/05 00:23:46;;;;;;;;;;;;;;;;;;5023099;28;21850;-90
2021/12/05 00:26:17;;;;;;;;;;;;;;;;;;5036591;28;19921;-90
2021/12/05 00:34:28;;;;;;;;;;;;;;;;;;5045861;28;19932;-86
2021/12/05 00:39:59;;;;;;;;;;;;;;;;;;5023993;28;20251;-86
2021/12/05 00:48:06;;;;;;;;;;;;;;;;;;5020379;28;20647;-88
2021/12/05 01:04:27;;;;;;;;;;;;;;;;;;5038240;28;19932;-86
2021/12/05 01:12:22;;;;;;;;;;;;;;;;;;5033528;28;19929;-85
2021/12/05 01:15:09;;;;;;;;;;;;;;;;;;5015637;28;20269;-85
2021/12/05 01:23:44;;;;;;;;;;;;;;;;;;5001017;28;19932;-86
2021/12/05 01:26:19;;;;;;;;;;;;;;;;;;5015378;28;19975;-84
2021/12/05 01:29:00;;;;;;;;;;;;;;;;;;5032407;28;19921;-85
2021/12/05 01:31:47;;;;;;;;;;;;;;;;;;4997885;28;19932;-84
2021/12/05 01:37:08;;;;;;;;;;;;;;;;;;5032574;28;19968;-87
2021/12/05 01:56:27;;;;;;;;;;;;;;;;;;5023463;28;20008;-86
2021/12/05 02:39:27;;;;;;;;;;;;;;;;;;5035461;28;19925;-86
2021/12/05 02:41:54;;;;;;;;;;;;;;;;;;5036131;28;20361;-86
2021/12/05 02:44:21;;;;;;;;;;;;;;;;;;5033215;28;21876;-84
2021/12/05 02:46:49;;;;;;;;;;;;;;;;;;5034024;28;19961;-83
2021/12/05 02:49:16;;;;;;;;;;;;;;;;;;5032685;28;20008;-84
2021/12/05 02:51:42;;;;;;;;;;;;;;;;;;5033347;28;19920;-83
2021/12/05 02:54:15;;;;;;;;;;;;;;;;;;5032987;28;19921;-83
2021/12/05 02:56:44;;;;;;;;;;;;;;;;;;5018647;28;20320;-84
2021/12/05 02:59:22;;;;;;;;;;;;;;;;;;5018430;28;19979;-84
2021/12/05 03:01:53;;;;;;;;;;;;;;;;;;5017300;28;19979;-85
2021/12/05 03:04:18;;;;;;;;;;;;;;;;;;5032103;28;19921;-84
2021/12/05 03:06:52;;;;;;;;;;;;;;;;;;5016684;28;20239;-84
2021/12/05 03:09:17;;;;;;;;;;;;;;;;;;5017054;28;19933;-84
2021/12/05 03:11:43;;;;;;;;;;;;;;;;;;5034054;28;20024;-84
2021/12/05 03:14:11;;;;;;;;;;;;;;;;;;5017698;28;20250;-85
2021/12/05 03:16:37;;;;;;;;;;;;;;;;;;5033172;28;19932;-83
2021/12/05 03:19:03;;;;;;;;;;;;;;;;;;5034563;28;19921;-85
2021/12/05 03:21:29;;;;;;;;;;;;;;;;;;5033552;28;19921;-85
2021/12/05 03:23:55;;;;;;;;;;;;;;;;;;5033582;28;19944;-85
2021/12/05 03:26:24;;;;;;;;;;;;;;;;;;5033505;28;19957;-84
2021/12/05 03:28:51;;;;;;;;;;;;;;;;;;5017602;28;19921;-85
2021/12/05 03:31:16;;;;;;;;;;;;;;;;;;5033906;28;19932;-85
2021/12/05 03:33:42;;;;;;;;;;;;;;;;;;5033746;28;19946;-85
2021/12/05 03:36:08;;;;;;;;;;;;;;;;;;5034598;28;19921;-86
2021/12/05 03:38:34;;;;;;;;;;;;;;;;;;5033318;28;19943;-86
2021/12/05 03:40:59;;;;;;;;;;;;;;;;;;5016965;28;20393;-86
2021/12/05 03:43:24;;;;;;;;;;;;;;;;;;5034722;28;19917;-86
2021/12/05 03:45:51;;;;;;;;;;;;;;;;;;5013661;28;19936;-87
2021/12/05 03:48:16;;;;;;;;;;;;;;;;;;5014865;28;19987;-86
2021/12/05 03:50:42;;;;;;;;;;;;;;;;;;5016259;28;20288;-87
2021/12/05 03:53:07;;;;;;;;;;;;;;;;;;5015832;28;19921;-87
2021/12/05 03:55:33;;;;;;;;;;;;;;;;;;5016613;28;19921;-86
2021/12/05 03:58:01;;;;;;;;;;;;;;;;;;5017365;28;19921;-87
2021/12/05 04:00:27;;;;;;;;;;;;;;;;;;5015292;28;20358;-87
2021/12/05 04:02:53;;;;;;;;;;;;;;;;;;5034197;28;19961;-87
2021/12/05 04:05:18;;;;;;;;;;;;;;;;;;5014089;28;20022;-87
2021/12/05 04:07:44;;;;;;;;;;;;;;;;;;4999769;28;20003;-86
2021/12/05 04:10:10;;;;;;;;;;;;;;;;;;5014583;28;19932;-86
2021/12/05 04:12:35;;;;;;;;;;;;;;;;;;5016258;28;19928;-87
2021/12/05 04:15:01;;;;;;;;;;;;;;;;;;5015143;28;19921;-86
2021/12/05 04:17:26;;;;;;;;;;;;;;;;;;5015637;28;20855;-87
2021/12/05 04:19:51;;;;;;;;;;;;;;;;;;5032663;28;20401;-85
2021/12/05 04:22:16;;;;;;;;;;;;;;;;;;5031739;28;19929;-83
2021/12/05 04:24:44;;;;;;;;;;;;;;;;;;5015340;28;19921;-83
2021/12/05 04:27:10;;;;;;;;;;;;;;;;;;5015654;28;19921;-83
2021/12/05 04:29:36;;;;;;;;;;;;;;;;;;5033707;28;19921;-84
2021/12/05 04:32:02;;;;;;;;;;;;;;;;;;5030530;28;20004;-84
2021/12/05 04:34:27;;;;;;;;;;;;;;;;;;5013148;28;20389;-84
2021/12/05 04:36:56;;;;;;;;;;;;;;;;;;4999185;28;19933;-83
2021/12/05 04:39:22;;;;;;;;;;;;;;;;;;5033432;28;19920;-85
2021/12/05 04:41:47;;;;;;;;;;;;;;;;;;4998706;28;19928;-85
2021/12/05 04:44:12;;;;;;;;;;;;;;;;;;4999633;28;20466;-85
2021/12/05 04:46:41;;;;;;;;;;;;;;;;;;5031648;28;20278;-85
2021/12/05 04:49:07;;;;;;;;;;;;;;;;;;5016187;28;20326;-84
2021/12/05 04:51:34;;;;;;;;;;;;;;;;;;5029225;28;19934;-83
2021/12/05 04:53:59;;;;;;;;;;;;;;;;;;5014959;28;19979;-84
2021/12/05 04:56:25;;;;;;;;;;;;;;;;;;5014112;28;19925;-82
2021/12/05 04:58:52;;;;;;;;;;;;;;;;;;5015924;28;19921;-84
2021/12/05 05:01:20;;;;;;;;;;;;;;;;;;5032021;28;20008;-84
2021/12/05 05:03:45;;;;;;;;;;;;;;;;;;5032014;28;19925;-84
2021/12/05 05:06:14;;;;;;;;;;;;;;;;;;5032353;28;20362;-84
2021/12/05 05:08:41;;;;;;;;;;;;;;;;;;5015274;28;19921;-84
2021/12/05 05:11:08;;;;;;;;;;;;;;;;;;5032251;28;20355;-85
2021/12/05 05:13:33;;;;;;;;;;;;;;;;;;5031551;28;20112;-84
2021/12/05 05:15:59;;;;;;;;;;;;;;;;;;5032785;28;20303;-84
2021/12/05 05:18:29;;;;;;;;;;;;;;;;;;5032728;28;20257;-84
2021/12/05 05:21:06;;;;;;;;;;;;;;;;;;5014689;28;19922;-85
2021/12/05 05:23:47;;;;;;;;;;;;;;;;;;5031700;28;19921;-84
2021/12/05 05:43:11;;;;;;;;;;;;;;;;;;5036737;28;19921;-84
2021/12/05 05:50:37;;;;;;;;;;;;;;;;;;5020039;28;19928;-84
2021/12/05 05:53:03;;;;;;;;;;;;;;;;;;5034265;28;19929;-84
2021/12/05 05:55:28;;;;;;;;;;;;;;;;;;5018204;28;20282;-84
2021/12/05 06:00:31;;;;;;;;;;;;;;;;;;5035890;28;20358;-83
2021/12/05 06:05:41;;;;;;;;;;;;;;;;;;5034576;28;20075;-85
2021/12/05 06:08:06;;;;;;;;;;;;;;;;;;5018452;28;20094;-85
2021/12/05 06:10:32;;;;;;;;;;;;;;;;;;5018640;28;19946;-85
2021/12/05 06:12:58;;;;;;;;;;;;;;;;;;5017970;28;20008;-85
2021/12/05 06:15:25;;;;;;;;;;;;;;;;;;5002050;28;20327;-85
2021/12/05 06:17:53;;;;;;;;;;;;;;;;;;5019250;28;19928;-85
2021/12/05 06:20:19;;;;;;;;;;;;;;;;;;5016891;28;19925;-84
2021/12/05 06:22:45;;;;;;;;;;;;;;;;;;5017724;28;19932;-84
2021/12/05 06:25:14;;;;;;;;;;;;;;;;;;5034674;28;20314;-83
2021/12/05 06:27:44;;;;;;;;;;;;;;;;;;5036078;28;19972;-84
2021/12/05 06:30:17;;;;;;;;;;;;;;;;;;5034618;28;19921;-84
2021/12/05 06:38:32;;;;;;;;;;;;;;;;;;5024869;28;19952;-84
2021/12/05 06:46:04;;;;;;;;;;;;;;;;;;5035091;28;19986;-83
2021/12/05 06:48:30;;;;;;;;;;;;;;;;;;5034324;28;19921;-83
2021/12/05 06:50:58;;;;;;;;;;;;;;;;;;5034528;28;19921;-83
2021/12/05 06:53:23;;;;;;;;;;;;;;;;;;5034111;28;20339;-83
2021/12/05 06:55:48;;;;;;;;;;;;;;;;;;5034093;28;19928;-82
2021/12/05 06:58:13;;;;;;;;;;;;;;;;;;5035946;28;19921;-83
2021/12/05 07:00:39;;;;;;;;;;;;;;;;;;5017050;28;20270;-83
2021/12/05 07:03:07;;;;;;;;;;;;;;;;;;5017796;28;19921;-83
2021/12/05 07:08:07;;;;;;;;;;;;;;;;;;5035187;28;19921;-82
2021/12/05 07:10:38;;;;;;;;;;;;;;;;;;5034544;28;19925;-83
2021/12/05 07:13:38;;;;;;;;;;;;;;;;;;5033608;28;19921;-83
2021/12/05 07:18:49;;;;;;;;;;;;;;;;;;5033725;28;20322;-84
2021/12/05 07:21:39;;;;;;;;;;;;;;;;;;5032691;28;19921;-83
2021/12/05 07:24:26;;;;;;;;;;;;;;;;;;5032993;28;19996;-85
2021/12/05 07:27:11;;;;;;;;;;;;;;;;;;5020887;28;20008;-84
2021/12/05 07:40:34;;;;;;;;;;;;;;;;;;5019477;28;19951;-82
2021/12/05 07:43:02;;;;;;;;;;;;;;;;;;5034878;28;19923;-83
2021/12/05 07:45:41;;;;;;;;;;;;;;;;;;5033058;28;19929;-82
2021/12/05 07:48:11;;;;;;;;;;;;;;;;;;5000020;28;20350;-83
2021/12/05 07:50:48;;;;;;;;;;;;;;;;;;5015952;28;19932;-83
2021/12/05 07:53:21;;;;;;;;;;;;;;;;;;5015770;28;20004;-83
2021/12/05 07:55:52;;;;;;;;;;;;;;;;;;5015823;28;19932;-84
2021/12/05 08:01:28;;;;;;;;;;;;;;;;;;5033492;28;20354;-84
2021/12/05 08:14:55;;;;;;;;;;;;;;;;;;5019583;28;20270;-83
2021/12/05 08:17:23;;;;;;;;;;;;;;;;;;5033457;28;19921;-83
2021/12/05 08:19:48;;;;;;;;;;;;;;;;;;5034277;28;19975;-84
2021/12/05 08:22:14;;;;;;;;;;;;;;;;;;5015401;28;20274;-83
2021/12/05 08:24:46;;;;;;;;;;;;;;;;;;5015872;28;19921;-83
2021/12/05 08:27:14;;;;;;;;;;;;;;;;;;5033145;28;19925;-83
2021/12/05 08:29:46;;;;;;;;;;;;;;;;;;5034312;28;19917;-83
2021/12/05 08:32:28;;;;;;;;;;;;;;;;;;5031800;28;20007;-84
2021/12/05 08:38:50;;;;;;;;;;;;;;;;;;5034011;28;19936;-83
2021/12/05 09:26:30;;;;;;;;;;;;;;;;;;5016826;28;19979;-85
2021/12/05 10:09:28;;;;;;;;;;;;;;;;;;5033787;28;19943;-84
2021/12/05 10:12:38;;;;;;;;;;;;;;;;;;5031675;28;20000;-83
2021/12/05 10:36:07;;;;;;;;;;;;;;;;;;5018214;28;20293;-84
2021/12/05 10:38:51;;;;;;;;;;;;;;;;;;5034802;28;20254;-87
2021/12/05 10:44:17;;;;;;;;;;;;;;;;;;5033510;28;20020;-83
2021/12/05 10:46:48;;;;;;;;;;;;;;;;;;4998035;28;20251;-84
2021/12/05 10:49:13;;;;;;;;;;;;;;;;;;5002306;28;19921;-84
2021/12/05 10:51:41;;;;;;;;;;;;;;;;;;5035347;28;19932;-84
2021/12/05 10:59:44;;;;;;;;;;;;;;;;;;5017949;28;19921;-85
2021/12/05 11:02:13;;;;;;;;;;;;;;;;;;5034127;28;19921;-85
2021/12/05 11:04:50;;;;;;;;;;;;;;;;;;5000624;28;19921;-85
2021/12/05 11:07:40;;;;;;;;;;;;;;;;;;5015639;28;19932;-84
2021/12/05 11:10:36;;;;;;;;;;;;;;;;;;5018413;28;19921;-84
2021/12/05 11:13:02;;;;;;;;;;;;;;;;;;5033946;28;20020;-85
2021/12/05 11:15:27;;;;;;;;;;;;;;;;;;5016175;28;20007;-85
2021/12/05 11:17:56;;;;;;;;;;;;;;;;;;5017855;28;19929;-84
2021/12/05 11:20:29;;;;;;;;;;;;;;;;;;5016921;28;19943;-85
2021/12/05 11:22:55;;;;;;;;;;;;;;;;;;5030208;28;19975;-85
2021/12/05 11:25:30;;;;;;;;;;;;;;;;;;5015526;28;19921;-85
2021/12/05 11:27:59;;;;;;;;;;;;;;;;;;5031890;28;19932;-85
2021/12/05 11:30:30;;;;;;;;;;;;;;;;;;5017774;28;20004;-85
2021/12/05 11:33:06;;;;;;;;;;;;;;;;;;5027544;28;19921;-84
2021/12/05 11:35:50;;;;;;;;;;;;;;;;;;5029285;28;19926;-84
2021/12/05 11:38:21;;;;;;;;;;;;;;;;;;5027364;28;19955;-82
2021/12/05 11:40:56;;;;;;;;;;;;;;;;;;5029385;28;19932;-85
2021/12/05 11:43:54;;;;;;;;;;;;;;;;;;5029234;28;20351;-86
2021/12/05 11:46:22;;;;;;;;;;;;;;;;;;5031436;28;19929;-85
2021/12/05 11:48:53;;;;;;;;;;;;;;;;;;5017175;28;19925;-84
2021/12/05 11:51:44;;;;;;;;;;;;;;;;;;5030948;28;20474;-86
2021/12/05 11:54:21;;;;;;;;;;;;;;;;;;5032409;28;19921;-87
2021/12/05 11:56:59;;;;;;;;;;;;;;;;;;5030249;28;19975;-87
2021/12/05 11:59:29;;;;;;;;;;;;;;;;;;5025889;28;19977;-87
2021/12/05 12:02:00;;;;;;;;;;;;;;;;;;5018004;28;19969;-86
2021/12/05 12:04:37;;;;;;;;;;;;;;;;;;5010663;28;19921;-88
2021/12/05 12:07:05;;;;;;;;;;;;;;;;;;5011178;28;20259;-89
2021/12/05 12:09:31;;;;;;;;;;;;;;;;;;5028256;28;19921;-89
2021/12/05 12:11:56;;;;;;;;;;;;;;;;;;5027702;28;20238;-90
2021/12/05 12:14:21;;;;;;;;;;;;;;;;;;5010942;28;20016;-86
2021/12/05 12:16:48;;;;;;;;;;;;;;;;;;5028809;28;20452;-87
2021/12/05 12:19:13;;;;;;;;;;;;;;;;;;5011578;28;19928;-89
2021/12/05 12:21:42;;;;;;;;;;;;;;;;;;5011662;28;20784;-87
2021/12/05 12:24:10;;;;;;;;;;;;;;;;;;4993886;28;19929;-85
2021/12/05 12:26:35;;;;;;;;;;;;;;;;;;5026373;28;20018;-86
2021/12/05 12:29:02;;;;;;;;;;;;;;;;;;4993439;28;21544;-83
2021/12/05 12:31:32;;;;;;;;;;;;;;;;;;5011531;28;20023;-86
2021/12/05 12:33:59;;;;;;;;;;;;;;;;;;5009054;28;19925;-87
2021/12/05 12:36:45;;;;;;;;;;;;;;;;;;5027316;28;19936;-83
2021/12/05 12:39:20;;;;;;;;;;;;;;;;;;5025185;28;19921;-82
2021/12/05 12:42:05;;;;;;;;;;;;;;;;;;5025684;28;19963;-83
2021/12/05 12:44:33;;;;;;;;;;;;;;;;;;5010512;28;20000;-85
2021/12/05 12:47:03;;;;;;;;;;;;;;;;;;4995080;28;19974;-85
2021/12/05 12:49:44;;;;;;;;;;;;;;;;;;5029131;28;19933;-88
2021/12/05 12:52:14;;;;;;;;;;;;;;;;;;5032434;28;19921;-86
2021/12/05 12:54:42;;;;;;;;;;;;;;;;;;5027413;28;19963;-85
2021/12/05 12:57:20;;;;;;;;;;;;;;;;;;5028325;28;20470;-87
2021/12/05 12:59:59;;;;;;;;;;;;;;;;;;5007231;28;19967;-86
2021/12/05 13:02:37;;;;;;;;;;;;;;;;;;5012789;28;19921;-84
2021/12/05 13:05:19;;;;;;;;;;;;;;;;;;5024762;28;19921;-86
2021/12/05 13:10:43;;;;;;;;;;;;;;;;;;5011525;28;19936;-87
2021/12/05 13:13:16;;;;;;;;;;;;;;;;;;5025083;28;19922;-87
2021/12/05 13:15:43;;;;;;;;;;;;;;;;;;5012441;28;19971;-84
2021/12/05 13:18:08;;;;;;;;;;;;;;;;;;5025383;28;20254;-82
2021/12/05 13:20:42;;;;;;;;;;;;;;;;;;5030751;28;19979;-85
2021/12/05 13:23:11;;;;;;;;;;;;;;;;;;5030944;28;19921;-85
2021/12/05 13:25:54;;;;;;;;;;;;;;;;;;5032500;28;20346;-85
2021/12/05 13:28:32;;;;;;;;;;;;;;;;;;5030235;28;19921;-85
2021/12/05 13:30:57;;;;;;;;;;;;;;;;;;5011874;28;20359;-85
2021/12/05 13:33:28;;;;;;;;;;;;;;;;;;5030505;28;19972;-84
2021/12/05 13:35:57;;;;;;;;;;;;;;;;;;5009132;28;20572;-85
2021/12/05 13:38:49;;;;;;;;;;;;;;;;;;5008506;28;19929;-85
2021/12/05 13:41:19;;;;;;;;;;;;;;;;;;5024510;28;19975;-84
2021/12/05 13:43:54;;;;;;;;;;;;;;;;;;5031819;28;19971;-85
2021/12/05 13:46:38;;;;;;;;;;;;;;;;;;4999267;28;20076;-84
2021/12/05 13:49:22;;;;;;;;;;;;;;;;;;4999182;28;19929;-86
2021/12/05 13:51:48;;;;;;;;;;;;;;;;;;5015645;28;20036;-85
2021/12/05 13:54:20;;;;;;;;;;;;;;;;;;5033686;28;20060;-85
2021/12/05 13:56:46;;;;;;;;;;;;;;;;;;5036416;28;19921;-85
2021/12/05 13:59:11;;;;;;;;;;;;;;;;;;5037153;28;19921;-85
2021/12/05 14:01:47;;;;;;;;;;;;;;;;;;5017530;28;20277;-85
2021/12/05 14:04:15;;;;;;;;;;;;;;;;;;5035238;28;19921;-84
2021/12/05 14:06:53;;;;;;;;;;;;;;;;;;5035315;28;20412;-85
2021/12/05 14:09:21;;;;;;;;;;;;;;;;;;5021338;28;19925;-86
2021/12/05 14:11:52;;;;;;;;;;;;;;;;;;5018333;28;19964;-85
2021/12/05 14:14:21;;;;;;;;;;;;;;;;;;5019038;28;19925;-84
2021/12/05 14:16:48;;;;;;;;;;;;;;;;;;5001516;28;19968;-85
2021/12/05 14:19:15;;;;;;;;;;;;;;;;;;5018225;28;19991;-85
2021/12/05 14:21:41;;;;;;;;;;;;;;;;;;5018064;28;19928;-84
2021/12/05 14:24:06;;;;;;;;;;;;;;;;;;5016570;28;20262;-84
2021/12/05 14:26:39;;;;;;;;;;;;;;;;;;5001384;28;19979;-84
2021/12/05 14:29:06;;;;;;;;;;;;;;;;;;5018648;28;19983;-85
2021/12/05 14:31:33;;;;;;;;;;;;;;;;;;5001509;28;19932;-85
2021/12/05 14:33:59;;;;;;;;;;;;;;;;;;4998861;28;20405;-85
2021/12/05 14:36:25;;;;;;;;;;;;;;;;;;5000980;28;19925;-86
2021/12/05 14:39:09;;;;;;;;;;;;;;;;;;5017927;28;20259;-86
2021/12/05 14:41:38;;;;;;;;;;;;;;;;;;5034664;28;20354;-86
2021/12/05 14:44:06;;;;;;;;;;;;;;;;;;5033829;28;19929;-86
2021/12/05 14:46:31;;;;;;;;;;;;;;;;;;5029974;28;19986;-86
2021/12/05 14:48:57;;;;;;;;;;;;;;;;;;5017748;28;19921;-86
2021/12/05 14:51:38;;;;;;;;;;;;;;;;;;5035667;28;19991;-85
2021/12/05 14:54:07;;;;;;;;;;;;;;;;;;5017489;28;20410;-85
2021/12/05 14:56:35;;;;;;;;;;;;;;;;;;5018189;28;19971;-85
2021/12/05 14:59:10;;;;;;;;;;;;;;;;;;5017497;28;19928;-85
2021/12/05 15:01:38;;;;;;;;;;;;;;;;;;5034100;28;19921;-85
2021/12/05 15:04:05;;;;;;;;;;;;;;;;;;5018133;28;19927;-85
2021/12/05 15:06:35;;;;;;;;;;;;;;;;;;5036029;28;19991;-85
2021/12/05 15:09:01;;;;;;;;;;;;;;;;;;5018434;28;19939;-85
2021/12/05 15:11:26;;;;;;;;;;;;;;;;;;5035633;28;19975;-85
2021/12/05 15:13:53;;;;;;;;;;;;;;;;;;5036056;28;20387;-86
2021/12/05 15:16:18;;;;;;;;;;;;;;;;;;5018438;28;20026;-85
2021/12/05 15:18:44;;;;;;;;;;;;;;;;;;5000737;28;19913;-85
2021/12/05 15:21:09;;;;;;;;;;;;;;;;;;5035307;28;19917;-84
2021/12/05 15:23:36;;;;;;;;;;;;;;;;;;5035702;28;19921;-85
2021/12/05 15:26:01;;;;;;;;;;;;;;;;;;5015503;28;19983;-86
2021/12/05 15:28:27;;;;;;;;;;;;;;;;;;5001084;28;20307;-86
2021/12/05 15:30:52;;;;;;;;;;;;;;;;;;5030567;28;19932;-86
2021/12/05 15:33:20;;;;;;;;;;;;;;;;;;5034575;28;19925;-89
2021/12/05 15:35:46;;;;;;;;;;;;;;;;;;5039593;28;19922;-86
2021/12/05 15:38:12;;;;;;;;;;;;;;;;;;5018000;28;20008;-87
2021/12/05 15:40:39;;;;;;;;;;;;;;;;;;5016997;28;20365;-87
2021/12/05 15:43:06;;;;;;;;;;;;;;;;;;5017376;28;19932;-88
2021/12/05 15:45:31;;;;;;;;;;;;;;;;;;5015640;28;20316;-87
2021/12/05 15:47:57;;;;;;;;;;;;;;;;;;5033539;28;20016;-87
2021/12/05 15:50:26;;;;;;;;;;;;;;;;;;5016177;28;19917;-86
2021/12/05 15:52:58;;;;;;;;;;;;;;;;;;5033570;28;19922;-87
2021/12/05 15:55:25;;;;;;;;;;;;;;;;;;5016717;28;19968;-87
2021/12/05 15:57:56;;;;;;;;;;;;;;;;;;5016112;28;19921;-87
2021/12/05 16:00:24;;;;;;;;;;;;;;;;;;5031259;28;19921;-87
2021/12/05 16:02:58;;;;;;;;;;;;;;;;;;5032756;28;19921;-87
2021/12/05 16:08:27;;;;;;;;;;;;;;;;;;5031627;28;19971;-86
2021/12/05 16:10:57;;;;;;;;;;;;;;;;;;5033721;28;19921;-87
2021/12/05 16:13:30;;;;;;;;;;;;;;;;;;5032423;28;19921;-85
2021/12/05 16:16:12;;;;;;;;;;;;;;;;;;5031051;28;19988;-88
2021/12/05 16:18:37;;;;;;;;;;;;;;;;;;5014192;28;19978;-88
2021/12/05 16:21:06;;;;;;;;;;;;;;;;;;5033183;28;19924;-87
2021/12/05 16:23:34;;;;;;;;;;;;;;;;;;5013253;28;19956;-88
2021/12/05 16:26:13;;;;;;;;;;;;;;;;;;5031149;28;19932;-86
2021/12/05 16:28:38;;;;;;;;;;;;;;;;;;5014622;28;19939;-88
2021/12/05 16:31:17;;;;;;;;;;;;;;;;;;5034285;28;19924;-89
2021/12/05 16:37:00;;;;;;;;;;;;;;;;;;5001940;28;19932;-88
2021/12/05 16:39:44;;;;;;;;;;;;;;;;;;5032770;28;20459;-90
2021/12/05 16:42:32;;;;;;;;;;;;;;;;;;5032682;28;19943;-89
2021/12/05 16:45:13;;;;;;;;;;;;;;;;;;5024530;28;20566;-89
2021/12/05 16:47:46;;;;;;;;;;;;;;;;;;5017515;28;20373;-88
2021/12/05 16:50:20;;;;;;;;;;;;;;;;;;5015085;28;19921;-88
2021/12/05 16:52:50;;;;;;;;;;;;;;;;;;5031539;28;19956;-89
2021/12/05 16:58:39;;;;;;;;;;;;;;;;;;5031085;28;20290;-88
2021/12/05 17:01:07;;;;;;;;;;;;;;;;;;5014688;28;19921;-88
2021/12/05 17:03:52;;;;;;;;;;;;;;;;;;5031595;28;19960;-89
2021/12/05 17:06:20;;;;;;;;;;;;;;;;;;5014176;28;19992;-87
2021/12/05 17:11:48;;;;;;;;;;;;;;;;;;5032436;28;20108;-88
2021/12/05 17:14:23;;;;;;;;;;;;;;;;;;5015775;28;19925;-90
2021/12/05 17:16:58;;;;;;;;;;;;;;;;;;5033024;28;19921;-91
2021/12/05 17:19:38;;;;;;;;;;;;;;;;;;5015865;28;20031;-88
2021/12/05 17:22:04;;;;;;;;;;;;;;;;;;5019182;28;20305;-87
2021/12/05 17:24:33;;;;;;;;;;;;;;;;;;5035963;28;19965;-88
2021/12/05 17:27:02;;;;;;;;;;;;;;;;;;5036888;28;19935;-88
2021/12/05 17:29:33;;;;;;;;;;;;;;;;;;5036319;28;19983;-88
2021/12/05 17:32:00;;;;;;;;;;;;;;;;;;5037374;28;19976;-88
2021/12/05 17:34:26;;;;;;;;;;;;;;;;;;5001903;28;20354;-85
2021/12/05 17:36:52;;;;;;;;;;;;;;;;;;5038068;28;19932;-85
2021/12/05 17:39:19;;;;;;;;;;;;;;;;;;5040987;28;19928;-84
2021/12/05 17:42:08;;;;;;;;;;;;;;;;;;5040022;28;19925;-86
2021/12/05 17:44:36;;;;;;;;;;;;;;;;;;5029211;28;19936;-86
2021/12/05 17:50:14;;;;;;;;;;;;;;;;;;5035065;28;19985;-87
2021/12/05 17:52:43;;;;;;;;;;;;;;;;;;5013724;28;20397;-86
2021/12/05 17:58:07;;;;;;;;;;;;;;;;;;5021196;28;20374;-90
2021/12/05 18:00:56;;;;;;;;;;;;;;;;;;5038834;28;19921;-88
2021/12/05 18:03:43;;;;;;;;;;;;;;;;;;5017211;28;19975;-88
2021/12/05 18:06:32;;;;;;;;;;;;;;;;;;5042277;28;19940;-90
2021/12/05 18:08:57;;;;;;;;;;;;;;;;;;5032217;28;20146;-84
2021/12/05 18:11:26;;;;;;;;;;;;;;;;;;5033694;28;20012;-82
2021/12/05 18:14:06;;;;;;;;;;;;;;;;;;5014595;28;20066;-86
2021/12/05 18:16:32;;;;;;;;;;;;;;;;;;5034824;28;20526;-86
2021/12/05 18:19:06;;;;;;;;;;;;;;;;;;5035743;28;19985;-85
2021/12/05 18:21:36;;;;;;;;;;;;;;;;;;5011876;28;19932;-86
2021/12/05 18:24:09;;;;;;;;;;;;;;;;;;5035950;28;19944;-85
2021/12/05 18:26:40;;;;;;;;;;;;;;;;;;5016393;28;19921;-83
2021/12/05 18:29:19;;;;;;;;;;;;;;;;;;5035162;28;20270;-83
2021/12/05 18:31:48;;;;;;;;;;;;;;;;;;5016467;28;19940;-83
2021/12/05 18:34:18;;;;;;;;;;;;;;;;;;5039499;28;20038;-82
2021/12/05 18:36:47;;;;;;;;;;;;;;;;;;5036988;28;19920;-83
2021/12/05 18:39:29;;;;;;;;;;;;;;;;;;5021802;28;19917;-83
2021/12/05 18:42:04;;;;;;;;;;;;;;;;;;5017256;28;19928;-82
2021/12/05 18:44:36;;;;;;;;;;;;;;;;;;5000796;28;19932;-82
2021/12/05 18:47:04;;;;;;;;;;;;;;;;;;5032991;28;20337;-82
2021/12/05 18:49:32;;;;;;;;;;;;;;;;;;5032921;28;19921;-82
2021/12/05 18:52:05;;;;;;;;;;;;;;;;;;5032783;28;19961;-82
2021/12/05 18:54:45;;;;;;;;;;;;;;;;;;5032359;28;20380;-82
2021/12/05 18:57:14;;;;;;;;;;;;;;;;;;5032257;28;19931;-82
2021/12/05 18:59:50;;;;;;;;;;;;;;;;;;5013312;28;19921;-82
2021/12/05 19:05:13;;;;;;;;;;;;;;;;;;5017940;28;19932;-86
2021/12/05 19:08:02;;;;;;;;;;;;;;;;;;5014731;28;19929;-86
2021/12/05 19:13:17;;;;;;;;;;;;;;;;;;5032318;28;20000;-86
2021/12/05 19:21:54;;;;;;;;;;;;;;;;;;5031274;28;19940;-89
2021/12/05 19:24:29;;;;;;;;;;;;;;;;;;5014458;28;19931;-87
2021/12/05 19:27:09;;;;;;;;;;;;;;;;;;5032064;28;19921;-89
2021/12/05 19:32:22;;;;;;;;;;;;;;;;;;5006960;28;20065;-89
2021/12/05 19:34:57;;;;;;;;;;;;;;;;;;4993044;28;19929;-88
2021/12/05 19:40:40;;;;;;;;;;;;;;;;;;5007805;28;20082;-91
2021/12/05 19:43:12;;;;;;;;;;;;;;;;;;4989979;28;19922;-91
2021/12/05 19:45:38;;;;;;;;;;;;;;;;;;4993245;28;20080;-88
2021/12/05 19:48:06;;;;;;;;;;;;;;;;;;5016136;28;19929;-93
2021/12/05 19:50:36;;;;;;;;;;;;;;;;;;5032896;28;19925;-90
2021/12/05 19:53:02;;;;;;;;;;;;;;;;;;4997944;28;19933;-92
2021/12/05 19:55:34;;;;;;;;;;;;;;;;;;4998908;28;19982;-94
2021/12/05 19:57:59;;;;;;;;;;;;;;;;;;5032363;28;19928;-92
2021/12/05 20:00:37;;;;;;;;;;;;;;;;;;5032399;28;19929;-92
2021/12/05 20:03:03;;;;;;;;;;;;;;;;;;5031743;28;19959;-92
2021/12/05 20:05:54;;;;;;;;;;;;;;;;;;5031334;28;19920;-92
2021/12/05 20:08:19;;;;;;;;;;;;;;;;;;5032487;28;19921;-92
2021/12/05 20:10:45;;;;;;;;;;;;;;;;;;5032852;28;20002;-94
2021/12/05 20:13:21;;;;;;;;;;;;;;;;;;;;;
2021/12/05 20:47:11;;;;;;;;;;;;;;;;;;;;;
2021/12/05 20:49:42;;;;;;;;;;;;;;;;;;5019074;28;19921;-85
2021/12/05 21:07:44;;;;;;;;;;;;;;;;;;4907232;29;20548;-86
2021/12/05 21:10:10;;;;;;;;;;;;;;;;;;4981318;28;19918;-87
2021/12/05 21:12:44;;;;;;;;;;;;;;;;;;4988073;28;20060;-89
2021/12/05 21:27:24;;;;;;;;;;;;;;;;;;4978246;28;19932;-87
2021/12/05 21:29:49;;;;;;;;;;;;;;;;;;4987521;28;19980;-87
2021/12/05 21:32:20;;;;;;;;;;;;;;;;;;4989515;28;19929;-87
2021/12/05 21:35:01;;;;;;;;;;;;;;;;;;4988000;28;19988;-86
2021/12/05 21:37:26;;;;;;;;;;;;;;;;;;4957465;28;20006;-86
2021/12/05 21:39:52;;;;;;;;;;;;;;;;;;4990658;28;19922;-86
2021/12/05 21:42:20;;;;;;;;;;;;;;;;;;4986577;28;20008;-87
2021/12/05 21:45:04;;;;;;;;;;;;;;;;;;5003248;28;19921;-82
2021/12/05 21:50:55;;;;;;;;;;;;;;;;;;5027702;28;19939;-88
2021/12/05 21:53:41;;;;;;;;;;;;;;;;;;5023882;28;19935;-87
2021/12/05 21:56:25;;;;;;;;;;;;;;;;;;5028226;28;19921;-86
2021/12/05 21:58:51;;;;;;;;;;;;;;;;;;5015332;28;19922;-87
2021/12/05 22:01:32;;;;;;;;;;;;;;;;;;5003942;28;19930;-87
2021/12/05 22:03:57;;;;;;;;;;;;;;;;;;5013036;28;19921;-88
2021/12/05 22:06:31;;;;;;;;;;;;;;;;;;5009183;28;19927;-88
2021/12/05 22:09:08;;;;;;;;;;;;;;;;;;5025323;28;19948;-86
2021/12/05 22:15:08;;;;;;;;;;;;;;;;;;5025601;28;20377;-89
2021/12/05 22:21:23;;;;;;;;;;;;;;;;;;4908725;29;19931;-87
2021/12/05 22:24:13;;;;;;;;;;;;;;;;;;4890313;29;20005;-87
2021/12/05 22:30:07;;;;;;;;;;;;;;;;;;4908812;29;19938;-87
2021/12/05 22:32:50;;;;;;;;;;;;;;;;;;4907269;29;19931;-88
2021/12/05 22:41:50;;;;;;;;;;;;;;;;;;4905890;29;20286;-86
2021/12/05 22:44:15;;;;;;;;;;;;;;;;;;4907904;29;19942;-88
2021/12/05 22:46:51;;;;;;;;;;;;;;;;;;4894264;29;20022;-87
2021/12/05 22:49:35;;;;;;;;;;;;;;;;;;4907422;29;19942;-88
2021/12/05 22:52:18;;;;;;;;;;;;;;;;;;4922979;29;19933;-87
2021/12/05 22:54:47;;;;;;;;;;;;;;;;;;4978508;28;19974;-88
2021/12/05 22:57:12;;;;;;;;;;;;;;;;;;5008710;28;20035;-89
2021/12/05 22:59:41;;;;;;;;;;;;;;;;;;5027833;28;20013;-89
2021/12/05 23:02:09;;;;;;;;;;;;;;;;;;5025969;28;19932;-89
2021/12/05 23:04:38;;;;;;;;;;;;;;;;;;5010170;28;19929;-90
2021/12/05 23:07:06;;;;;;;;;;;;;;;;;;5011871;28;19928;-89
2021/12/05 23:09:32;;;;;;;;;;;;;;;;;;5008415;28;19925;-91
2021/12/05 23:11:57;;;;;;;;;;;;;;;;;;5009442;28;20261;-88
2021/12/05 23:14:25;;;;;;;;;;;;;;;;;;5006237;28;19952;-89
2021/12/05 23:16:50;;;;;;;;;;;;;;;;;;4997336;28;19921;-90
2021/12/05 23:19:16;;;;;;;;;;;;;;;;;;5017963;28;19921;-90
2021/12/05 23:21:46;;;;;;;;;;;;;;;;;;5001860;28;19932;-90
2021/12/05 23:24:16;;;;;;;;;;;;;;;;;;5034529;28;19921;-89
2021/12/05 23:26:42;;;;;;;;;;;;;;;;;;5030141;28;19957;-89
2021/12/05 23:29:09;;;;;;;;;;;;;;;;;;5015136;28;19920;-89
2021/12/05 23:31:37;;;;;;;;;;;;;;;;;;5017958;28;19967;-88
2021/12/05 23:34:03;;;;;;;;;;;;;;;;;;5000748;28;19964;-90
2021/12/05 23:36:28;;;;;;;;;;;;;;;;;;5008343;28;20327;-89
2021/12/05 23:38:54;;;;;;;;;;;;;;;;;;5010339;28;19928;-90
2021/12/05 23:41:20;;;;;;;;;;;;;;;;;;5033027;28;20370;-91
2021/12/05 23:43:45;;;;;;;;;;;;;;;;;;5018295;28;19932;-89
2021/12/05 23:46:11;;;;;;;;;;;;;;;;;;5032709;28;19932;-89
2021/12/05 23:48:37;;;;;;;;;;;;;;;;;;5032487;28;20342;-88
2021/12/05 23:51:03;;;;;;;;;;;;;;;;;;5032476;28;19932;-89
2021/12/05 23:53:31;;;;;;;;;;;;;;;;;;5016751;28;20304;-89
2021/12/05 23:55:57;;;;;;;;;;;;;;;;;;5031820;28;19940;-89
2021/12/05 23:58:24;;;;;;;;;;;;;;;;;;5031552;28;19949;-88
